Time,TemperatureF,DewpointF,PressureIn,WindDirection,WindDirectionDegrees,WindSpeedMPH,WindSpeedGustMPH,Humidity,HourlyPrecipIn,Conditions,Clouds,dailyrainin,SoftwareType,DateUTC
2013-04-24 00:03:00,56.8,55.4,29.77,SSW,210,5.0,22.0,95,0.05,,,0.26,Wunderground v.1.15,2013-04-24 05:03:00,
2013-04-24 00:08:00,56.7,55.3,29.77,SW,231,5.0,22.0,95,0.04,,,0.26,Wunderground v.1.15,2013-04-24 05:08:00,
2013-04-24 00:13:00,56.7,55.3,29.77,SW,221,5.0,22.0,95,0.00,,,0.27,Wunderground v.1.15,2013-04-24 05:13:00,
2013-04-24 00:18:00,56.6,55.2,29.77,SW,233,4.0,22.0,95,0.00,,,0.27,Wunderground v.1.15,2013-04-24 05:18:00,
2013-04-24 00:24:00,56.5,55.1,29.77,WSW,248,4.0,22.0,95,0.00,,,0.27,Wunderground v.1.15,2013-04-24 05:24:00,
2013-04-24 00:29:00,56.5,55.1,29.77,WSW,248,3.0,22.0,95,0.00,,,0.27,Wunderground v.1.15,2013-04-24 05:29:00,
2013-04-24 00:34:00,56.6,55.2,29.77,WSW,248,3.0,22.0,95,0.00,,,0.27,Wunderground v.1.15,2013-04-24 05:34:00,
2013-04-24 00:39:00,56.6,55.2,29.76,WSW,254,4.0,22.0,95,0.00,,,0.27,Wunderground v.1.15,2013-04-24 05:39:00,
2013-04-24 00:44:00,56.5,55.1,29.76,WSW,254,3.0,22.0,95,0.00,,,0.27,Wunderground v.1.15,2013-04-24 05:44:00,
2013-04-24 00:50:00,54.8,53.1,29.77,WNW,302,5.0,22.0,94,0.00,,,0.28,Wunderground v.1.15,2013-04-24 05:50:00,
2013-04-24 00:55:00,52.7,51.0,29.77,WNW,288,8.0,22.0,94,0.00,,,0.28,Wunderground v.1.15,2013-04-24 05:55:00,
2013-04-24 01:00:00,50.6,48.9,29.77,WNW,297,13.0,22.0,94,0.00,,,0.28,Wunderground v.1.15,2013-04-24 06:00:00,
2013-04-24 01:05:00,49.7,48.0,29.78,WNW,282,14.0,22.0,94,0.00,,,0.28,Wunderground v.1.15,2013-04-24 06:05:00,
2013-04-24 01:10:00,49.1,47.4,29.77,NW,317,10.0,10.0,94,0.00,,,0.28,Wunderground v.1.15,2013-04-24 06:10:00,
2013-04-24 01:16:00,48.3,46.7,29.76,NW,325,7.0,22.0,94,0.00,,,0.28,Wunderground v.1.15,2013-04-24 06:16:00,
2013-04-24 01:21:00,47.8,46.4,29.77,NW,325,6.0,22.0,95,0.00,,,0.29,Wunderground v.1.15,2013-04-24 06:21:00,
2013-04-24 01:26:00,47.3,45.9,29.79,WNW,292,8.0,22.0,95,0.00,,,0.29,Wunderground v.1.15,2013-04-24 06:26:00,
2013-04-24 01:31:00,47.0,45.6,29.79,WNW,298,10.0,22.0,95,0.04,,,0.30,Wunderground v.1.15,2013-04-24 06:31:00,
2013-04-24 01:36:00,46.7,45.3,29.79,WNW,300,9.0,22.0,95,0.04,,,0.30,Wunderground v.1.15,2013-04-24 06:36:00,
2013-04-24 01:41:00,46.6,45.2,29.80,WNW,288,9.0,22.0,95,0.11,,,0.31,Wunderground v.1.15,2013-04-24 06:41:00,
2013-04-24 01:46:00,46.4,45.0,29.80,WNW,294,10.0,22.0,95,0.08,,,0.32,Wunderground v.1.15,2013-04-24 06:46:00,
2013-04-24 01:52:00,45.9,44.5,29.80,WNW,292,10.0,22.0,95,0.08,,,0.33,Wunderground v.1.15,2013-04-24 06:52:00,
2013-04-24 01:57:00,45.8,44.4,29.80,WNW,303,9.0,22.0,95,0.08,,,0.33,Wunderground v.1.15,2013-04-24 06:57:00,
2013-04-24 02:02:00,45.6,44.3,29.80,WNW,296,7.0,22.0,95,0.05,,,0.33,Wunderground v.1.15,2013-04-24 07:02:00,
2013-04-24 02:07:00,45.6,44.3,29.80,NW,323,6.0,22.0,95,0.04,,,0.33,Wunderground v.1.15,2013-04-24 07:07:00,
2013-04-24 02:12:00,45.4,44.1,29.79,WNW,287,6.0,22.0,95,0.00,,,0.33,Wunderground v.1.15,2013-04-24 07:12:00,
2013-04-24 02:17:00,45.3,44.0,29.80,WNW,288,7.0,22.0,95,0.00,,,0.33,Wunderground v.1.15,2013-04-24 07:17:00,
2013-04-24 02:23:00,45.1,43.8,29.79,NW,320,9.0,22.0,95,0.00,,,0.33,Wunderground v.1.15,2013-04-24 07:23:00,
2013-04-24 02:28:00,45.1,43.8,29.79,WNW,296,8.0,22.0,95,0.00,,,0.34,Wunderground v.1.15,2013-04-24 07:28:00,
2013-04-24 02:33:00,45.0,43.7,29.80,WNW,282,7.0,11.0,95,0.10,,,0.35,Wunderground v.1.15,2013-04-24 07:33:00,
2013-04-24 02:38:00,44.9,43.6,29.80,WNW,290,9.0,22.0,95,0.10,,,0.36,Wunderground v.1.15,2013-04-24 07:38:00,
2013-04-24 02:43:00,44.4,43.1,29.82,WNW,287,12.0,22.0,95,0.08,,,0.36,Wunderground v.1.15,2013-04-24 07:43:00,
2013-04-24 02:48:00,44.3,43.0,29.82,West,281,12.0,22.0,95,0.05,,,0.36,Wunderground v.1.15,2013-04-24 07:48:00,
2013-04-24 02:53:00,44.3,43.0,29.81,NW,309,9.0,22.0,95,0.04,,,0.37,Wunderground v.1.15,2013-04-24 07:53:00,
2013-04-24 02:58:00,43.9,42.6,29.82,WNW,294,8.0,22.0,95,0.04,,,0.37,Wunderground v.1.15,2013-04-24 07:58:00,
2013-04-24 03:04:00,43.8,42.5,29.82,WNW,297,10.0,22.0,95,0.04,,,0.37,Wunderground v.1.15,2013-04-24 08:04:00,
2013-04-24 03:09:00,43.8,42.5,29.81,WNW,285,11.0,22.0,95,0.04,,,0.38,Wunderground v.1.15,2013-04-24 08:09:00,
2013-04-24 03:14:00,43.4,42.1,29.83,WNW,290,10.0,22.0,95,0.04,,,0.38,Wunderground v.1.15,2013-04-24 08:14:00,
2013-04-24 03:19:00,42.9,41.3,29.83,WNW,289,12.0,22.0,94,0.04,,,0.38,Wunderground v.1.15,2013-04-24 08:19:00,
2013-04-24 03:24:00,42.9,41.3,29.83,WNW,297,12.0,22.0,94,0.04,,,0.38,Wunderground v.1.15,2013-04-24 08:24:00,
2013-04-24 03:30:00,42.7,41.1,29.82,NW,304,10.0,10.0,94,0.00,,,0.38,Wunderground v.1.15,2013-04-24 08:30:00,
2013-04-24 03:35:00,42.5,40.9,29.81,NNW,329,7.0,22.0,94,0.00,,,0.39,Wunderground v.1.15,2013-04-24 08:35:00,
2013-04-24 03:40:00,42.6,41.3,29.83,WNW,288,6.0,22.0,95,0.00,,,0.39,Wunderground v.1.15,2013-04-24 08:40:00,
2013-04-24 03:45:00,42.4,40.8,29.84,WNW,286,9.0,22.0,94,0.00,,,0.39,Wunderground v.1.15,2013-04-24 08:45:00,
2013-04-24 03:50:00,42.4,40.8,29.82,WNW,300,11.0,11.0,94,0.00,,,0.39,Wunderground v.1.15,2013-04-24 08:50:00,
2013-04-24 03:56:00,42.2,40.6,29.82,NW,307,9.0,22.0,94,0.00,,,0.39,Wunderground v.1.15,2013-04-24 08:56:00,
2013-04-24 04:01:00,42.3,40.7,29.82,NW,309,7.0,22.0,94,0.00,,,0.39,Wunderground v.1.15,2013-04-24 09:01:00,
2013-04-24 04:06:00,42.0,40.4,29.83,NW,304,7.0,22.0,94,0.00,,,0.40,Wunderground v.1.15,2013-04-24 09:06:00,
2013-04-24 04:11:00,41.9,40.3,29.84,WNW,288,10.0,22.0,94,0.00,,,0.40,Wunderground v.1.15,2013-04-24 09:11:00,
2013-04-24 04:16:00,42.0,40.4,29.84,NW,313,9.0,22.0,94,0.00,,,0.40,Wunderground v.1.15,2013-04-24 09:16:00,
2013-04-24 04:22:00,42.1,40.5,29.84,WNW,284,7.0,22.0,94,0.05,,,0.41,Wunderground v.1.15,2013-04-24 09:22:00,
2013-04-24 04:27:00,41.8,40.2,29.85,WNW,290,7.0,22.0,94,0.05,,,0.41,Wunderground v.1.15,2013-04-24 09:27:00,
2013-04-24 04:32:00,41.7,40.1,29.84,NW,321,9.0,22.0,94,0.04,,,0.41,Wunderground v.1.15,2013-04-24 09:32:00,
2013-04-24 04:37:00,41.5,39.9,29.84,NW,311,9.0,22.0,94,0.00,,,0.41,Wunderground v.1.15,2013-04-24 09:37:00,
2013-04-24 04:42:00,41.5,39.9,29.83,NNW,331,8.0,22.0,94,0.00,,,0.42,Wunderground v.1.15,2013-04-24 09:42:00,
2013-04-24 04:48:00,41.2,39.6,29.83,NW,324,9.0,22.0,94,0.00,,,0.42,Wunderground v.1.15,2013-04-24 09:48:00,
2013-04-24 04:53:00,41.1,39.5,29.84,NNW,331,8.0,22.0,94,0.00,,,0.42,Wunderground v.1.15,2013-04-24 09:53:00,
2013-04-24 04:58:00,41.0,39.4,29.84,NW,310,7.0,22.0,94,0.04,,,0.43,Wunderground v.1.15,2013-04-24 09:58:00,
2013-04-24 05:03:00,41.0,39.4,29.84,NW,325,7.0,22.0,94,0.04,,,0.43,Wunderground v.1.15,2013-04-24 10:03:00,
2013-04-24 05:08:00,41.0,39.4,29.83,WNW,303,7.0,22.0,94,0.04,,,0.43,Wunderground v.1.15,2013-04-24 10:08:00,
2013-04-24 05:14:00,40.8,39.2,29.84,WNW,302,8.0,22.0,94,0.00,,,0.43,Wunderground v.1.15,2013-04-24 10:14:00,
2013-04-24 05:19:00,40.7,39.1,29.85,WNW,297,9.0,22.0,94,0.00,,,0.43,Wunderground v.1.15,2013-04-24 10:19:00,
2013-04-24 05:24:00,40.8,39.2,29.86,WNW,291,9.0,22.0,94,0.00,,,0.43,Wunderground v.1.15,2013-04-24 10:24:00,
2013-04-24 05:29:00,40.7,39.1,29.85,NNW,327,10.0,22.0,94,0.16,,,0.45,Wunderground v.1.15,2013-04-24 10:29:00,
2013-04-24 05:34:00,40.7,39.1,29.84,NNW,331,8.0,22.0,94,0.13,,,0.46,Wunderground v.1.15,2013-04-24 10:34:00,
2013-04-24 05:40:00,40.7,39.1,29.85,WNW,292,6.0,22.0,94,0.08,,,0.46,Wunderground v.1.15,2013-04-24 10:40:00,
2013-04-24 05:45:00,40.7,39.1,29.86,WNW,301,7.0,22.0,94,0.05,,,0.46,Wunderground v.1.15,2013-04-24 10:45:00,
2013-04-24 05:50:00,40.8,39.2,29.86,WNW,292,7.0,22.0,94,0.04,,,0.47,Wunderground v.1.15,2013-04-24 10:50:00,
2013-04-24 05:55:00,40.7,39.1,29.86,WNW,288,8.0,22.0,94,0.04,,,0.47,Wunderground v.1.15,2013-04-24 10:55:00,
2013-04-24 06:00:00,40.4,38.8,29.85,NW,313,8.0,22.0,94,0.07,,,0.48,Wunderground v.1.15,2013-04-24 11:00:00,
2013-04-24 06:06:00,40.3,38.7,29.86,WNW,286,8.0,22.0,94,0.09,,,0.49,Wunderground v.1.15,2013-04-24 11:06:00,
2013-04-24 06:11:00,40.2,38.6,29.87,NNW,331,9.0,22.0,94,0.09,,,0.49,Wunderground v.1.15,2013-04-24 11:11:00,
2013-04-24 06:16:00,40.2,38.6,29.87,West,273,9.0,22.0,94,0.05,,,0.49,Wunderground v.1.15,2013-04-24 11:16:00,
2013-04-24 06:21:00,40.2,38.6,29.87,NNW,327,8.0,22.0,94,0.04,,,0.49,Wunderground v.1.15,2013-04-24 11:21:00,
2013-04-24 06:26:00,40.3,38.7,29.86,WNW,292,8.0,22.0,94,0.00,,,0.50,Wunderground v.1.15,2013-04-24 11:26:00,
2013-04-24 06:31:00,40.1,38.5,29.85,WNW,294,7.0,22.0,94,0.09,,,0.51,Wunderground v.1.15,2013-04-24 11:31:00,
2013-04-24 06:36:00,40.1,38.5,29.86,NW,309,7.0,22.0,94,0.09,,,0.51,Wunderground v.1.15,2013-04-24 11:36:00,
2013-04-24 06:41:00,40.0,38.4,29.86,WNW,286,7.0,22.0,94,0.08,,,0.52,Wunderground v.1.15,2013-04-24 11:41:00,
2013-04-24 06:46:00,39.9,38.3,29.86,WNW,293,8.0,22.0,94,0.07,,,0.53,Wunderground v.1.15,2013-04-24 11:46:00,
2013-04-24 06:51:00,39.9,38.3,29.87,WNW,289,8.0,22.0,94,0.07,,,0.53,Wunderground v.1.15,2013-04-24 11:51:00,
2013-04-24 06:56:00,39.8,38.2,29.86,NNW,328,8.0,22.0,94,0.07,,,0.54,Wunderground v.1.15,2013-04-24 11:56:00,
2013-04-24 07:01:00,39.9,38.3,29.87,WNW,287,8.0,22.0,94,0.07,,,0.54,Wunderground v.1.15,2013-04-24 12:01:00,
2013-04-24 07:06:00,39.8,38.2,29.87,WNW,298,8.0,22.0,94,0.07,,,0.55,Wunderground v.1.15,2013-04-24 12:06:00,
2013-04-24 07:11:00,39.8,38.2,29.87,NNW,331,7.0,22.0,94,0.07,,,0.55,Wunderground v.1.15,2013-04-24 12:11:00,
2013-04-24 07:16:00,39.6,38.0,29.88,NW,323,7.0,22.0,94,0.05,,,0.56,Wunderground v.1.15,2013-04-24 12:16:00,
2013-04-24 07:21:00,39.5,37.9,29.88,WNW,298,8.0,22.0,94,0.05,,,0.56,Wunderground v.1.15,2013-04-24 12:21:00,
2013-04-24 07:26:00,39.6,38.0,29.88,WNW,291,9.0,22.0,94,0.07,,,0.57,Wunderground v.1.15,2013-04-24 12:26:00,
2013-04-24 07:31:00,39.6,38.0,29.87,NNW,333,8.0,22.0,94,0.14,,,0.58,Wunderground v.1.15,2013-04-24 12:31:00,
2013-04-24 07:37:00,39.5,37.9,29.86,NNW,342,8.0,22.0,94,0.12,,,0.59,Wunderground v.1.15,2013-04-24 12:37:00,
2013-04-24 07:42:00,39.5,37.9,29.87,WNW,296,9.0,22.0,94,0.06,,,0.59,Wunderground v.1.15,2013-04-24 12:42:00,
2013-04-24 07:47:00,39.3,37.7,29.87,WNW,290,9.0,22.0,94,0.06,,,0.60,Wunderground v.1.15,2013-04-24 12:47:00,
2013-04-24 07:52:00,39.1,37.5,29.86,NNW,327,8.0,22.0,94,0.06,,,0.60,Wunderground v.1.15,2013-04-24 12:52:00,
2013-04-24 07:57:00,39.2,37.6,29.86,North,350,8.0,22.0,94,0.04,,,0.60,Wunderground v.1.15,2013-04-24 12:57:00,
2013-04-24 08:03:00,39.1,37.5,29.86,NNW,332,8.0,22.0,94,0.00,,,0.60,Wunderground v.1.15,2013-04-24 13:03:00,
2013-04-24 08:08:00,39.0,37.4,29.87,WNW,294,9.0,22.0,94,0.00,,,0.61,Wunderground v.1.15,2013-04-24 13:08:00,
2013-04-24 08:13:00,39.1,37.5,29.87,NW,309,9.0,22.0,94,0.00,,,0.61,Wunderground v.1.15,2013-04-24 13:13:00,
2013-04-24 08:18:00,38.7,37.1,29.88,WNW,297,9.0,22.0,94,0.00,,,0.61,Wunderground v.1.15,2013-04-24 13:18:00,
2013-04-24 08:23:00,38.5,36.9,29.88,NW,319,9.0,22.0,94,0.00,,,0.61,Wunderground v.1.15,2013-04-24 13:23:00,
2013-04-24 08:29:00,38.2,36.4,29.88,NW,305,9.0,22.0,93,0.00,,,0.62,Wunderground v.1.15,2013-04-24 13:29:00,
2013-04-24 08:34:00,38.2,36.6,29.89,NW,313,9.0,22.0,94,0.00,,,0.62,Wunderground v.1.15,2013-04-24 13:34:00,
2013-04-24 08:39:00,38.0,36.4,29.88,WNW,302,8.0,22.0,94,0.00,,,0.62,Wunderground v.1.15,2013-04-24 13:39:00,
2013-04-24 08:44:00,38.0,36.4,29.90,WNW,288,8.0,22.0,94,0.00,,,0.62,Wunderground v.1.15,2013-04-24 13:44:00,
2013-04-24 08:49:00,37.9,36.3,29.89,WNW,298,8.0,22.0,94,0.00,,,0.62,Wunderground v.1.15,2013-04-24 13:49:00,
2013-04-24 08:55:00,37.9,36.1,29.91,NNW,339,8.0,22.0,93,0.00,,,0.62,Wunderground v.1.15,2013-04-24 13:55:00,
2013-04-24 09:00:00,37.6,35.8,29.91,NW,311,10.0,10.0,93,0.00,,,0.62,Wunderground v.1.15,2013-04-24 14:00:00,
2013-04-24 09:05:00,37.6,35.8,29.92,NNW,332,10.0,22.0,93,0.00,,,0.62,Wunderground v.1.15,2013-04-24 14:05:00,
2013-04-24 09:10:00,37.6,35.8,29.89,NNW,333,8.0,22.0,93,0.00,,,0.62,Wunderground v.1.15,2013-04-24 14:10:00,
2013-04-24 09:15:00,37.7,35.9,29.89,NNW,331,7.0,22.0,93,0.00,,,0.62,Wunderground v.1.15,2013-04-24 14:15:00,
2013-04-24 09:21:00,37.7,35.9,29.88,WNW,294,7.0,22.0,93,0.00,,,0.62,Wunderground v.1.15,2013-04-24 14:21:00,
2013-04-24 09:26:00,37.7,35.9,29.88,NW,311,8.0,22.0,93,0.00,,,0.62,Wunderground v.1.15,2013-04-24 14:26:00,
2013-04-24 09:31:00,37.8,36.0,29.89,NNW,333,9.0,22.0,93,0.00,,,0.62,Wunderground v.1.15,2013-04-24 14:31:00,
2013-04-24 09:36:00,37.9,36.1,29.90,NNW,327,9.0,22.0,93,0.00,,,0.62,Wunderground v.1.15,2013-04-24 14:36:00,
2013-04-24 09:41:00,38.0,36.2,29.90,NW,308,8.0,14.0,93,0.00,,,0.62,Wunderground v.1.15,2013-04-24 14:41:00,
2013-04-24 09:47:00,38.1,36.3,29.91,WNW,296,9.0,22.0,93,0.00,,,0.62,Wunderground v.1.15,2013-04-24 14:47:00,
2013-04-24 09:52:00,38.2,36.4,29.91,WNW,294,10.0,22.0,93,0.00,,,0.62,Wunderground v.1.15,2013-04-24 14:52:00,
2013-04-24 09:57:00,38.2,36.4,29.90,NW,306,9.0,22.0,93,0.00,,,0.62,Wunderground v.1.15,2013-04-24 14:57:00,
2013-04-24 10:02:00,38.3,36.5,29.91,NW,306,10.0,22.0,93,0.00,,,0.62,Wunderground v.1.15,2013-04-24 15:02:00,
2013-04-24 10:10:00,38.4,36.3,29.91,NW,316,11.0,22.0,92,0.00,,,0.62,Wunderground v.1.15,2013-04-24 15:10:00,
2013-04-24 10:15:00,38.6,36.5,29.92,WNW,299,12.0,22.0,92,0.00,,,0.62,Wunderground v.1.15,2013-04-24 15:15:00,
2013-04-24 10:20:00,38.2,35.8,29.93,WNW,282,16.0,22.0,91,0.00,,,0.62,Wunderground v.1.15,2013-04-24 15:20:00,
2013-04-24 10:25:00,38.4,36.0,29.93,WNW,288,16.0,22.0,91,0.00,,,0.62,Wunderground v.1.15,2013-04-24 15:25:00,
2013-04-24 10:30:00,38.2,35.8,29.93,West,281,15.0,22.0,91,0.00,,,0.62,Wunderground v.1.15,2013-04-24 15:30:00,
2013-04-24 10:36:00,38.0,35.6,29.94,WNW,297,18.0,22.0,91,0.00,,,0.62,Wunderground v.1.15,2013-04-24 15:36:00,
2013-04-24 10:41:00,37.9,35.5,29.94,WNW,293,19.0,22.0,91,0.00,,,0.62,Wunderground v.1.15,2013-04-24 15:41:00,
2013-04-24 10:46:00,37.9,35.2,29.95,WNW,290,20.0,22.0,90,0.00,,,0.62,Wunderground v.1.15,2013-04-24 15:46:00,
2013-04-24 10:51:00,38.0,35.3,29.95,WNW,289,19.0,26.0,90,0.00,,,0.62,Wunderground v.1.15,2013-04-24 15:51:00,
2013-04-24 10:56:00,38.0,35.6,29.96,WNW,298,18.0,26.0,91,0.00,,,0.62,Wunderground v.1.15,2013-04-24 15:56:00,
2013-04-24 11:02:00,37.6,34.9,29.95,WNW,295,16.0,22.0,90,0.00,,,0.62,Wunderground v.1.15,2013-04-24 16:02:00,
2013-04-24 11:07:00,37.5,35.1,29.96,WNW,286,17.0,22.0,91,0.00,,,0.62,Wunderground v.1.15,2013-04-24 16:07:00,
2013-04-24 11:12:00,37.0,34.6,29.96,West,277,19.0,25.0,91,0.00,,,0.62,Wunderground v.1.15,2013-04-24 16:12:00,
2013-04-24 11:17:00,37.2,34.8,29.96,West,279,18.0,25.0,91,0.00,,,0.62,Wunderground v.1.15,2013-04-24 16:17:00,
2013-04-24 11:22:00,37.1,34.7,29.97,WNW,294,15.0,22.0,91,0.00,,,0.62,Wunderground v.1.15,2013-04-24 16:22:00,
2013-04-24 11:28:00,37.3,34.9,29.97,WNW,290,15.0,22.0,91,0.00,,,0.62,Wunderground v.1.15,2013-04-24 16:28:00,
2013-04-24 11:33:00,37.2,34.8,29.98,WNW,284,17.0,30.0,91,0.00,,,0.63,Wunderground v.1.15,2013-04-24 16:33:00,
2013-04-24 11:38:00,37.3,34.9,29.98,West,274,17.0,30.0,91,0.00,,,0.63,Wunderground v.1.15,2013-04-24 16:38:00,
2013-04-24 11:43:00,37.6,35.5,29.98,NW,318,15.0,22.0,92,0.00,,,0.63,Wunderground v.1.15,2013-04-24 16:43:00,
2013-04-24 11:48:00,37.8,35.4,29.98,WNW,291,13.0,22.0,91,0.00,,,0.63,Wunderground v.1.15,2013-04-24 16:48:00,
2013-04-24 11:54:00,37.8,35.4,29.98,WNW,302,12.0,22.0,91,0.00,,,0.63,Wunderground v.1.15,2013-04-24 16:54:00,
2013-04-24 11:59:00,37.9,35.2,29.99,WNW,286,12.0,22.0,90,0.00,,,0.63,Wunderground v.1.15,2013-04-24 16:59:00,
2013-04-24 12:04:00,38.0,35.3,29.99,WNW,285,12.0,22.0,90,0.00,,,0.63,Wunderground v.1.15,2013-04-24 17:04:00,
2013-04-24 12:09:00,38.2,35.5,29.99,NNW,332,13.0,22.0,90,0.00,,,0.63,Wunderground v.1.15,2013-04-24 17:09:00,
2013-04-24 12:14:00,38.2,35.2,30.00,WNW,294,12.0,22.0,89,0.00,,,0.63,Wunderground v.1.15,2013-04-24 17:14:00,
2013-04-24 12:20:00,38.4,35.4,30.01,WNW,297,13.0,22.0,89,0.00,,,0.63,Wunderground v.1.15,2013-04-24 17:20:00,
2013-04-24 12:25:00,38.7,35.7,30.00,WNW,292,13.0,22.0,89,0.00,,,0.63,Wunderground v.1.15,2013-04-24 17:25:00,
2013-04-24 12:30:00,38.6,35.4,30.01,NW,323,12.0,12.0,88,0.00,,,0.63,Wunderground v.1.15,2013-04-24 17:30:00,
2013-04-24 12:35:00,38.7,35.7,30.01,WNW,301,13.0,22.0,89,0.00,,,0.63,Wunderground v.1.15,2013-04-24 17:35:00,
2013-04-24 12:40:00,39.3,36.3,30.01,West,273,13.0,13.0,89,0.00,,,0.63,Wunderground v.1.15,2013-04-24 17:40:00,
2013-04-24 12:46:00,39.1,35.8,30.02,WNW,296,13.0,22.0,88,0.00,,,0.63,Wunderground v.1.15,2013-04-24 17:46:00,
2013-04-24 12:51:00,39.2,35.9,30.03,WNW,290,14.0,23.0,88,0.00,,,0.63,Wunderground v.1.15,2013-04-24 17:51:00,
2013-04-24 12:56:00,39.1,35.8,30.03,WNW,298,15.0,23.0,88,0.00,,,0.63,Wunderground v.1.15,2013-04-24 17:56:00,
2013-04-24 13:01:00,39.1,35.6,30.03,WNW,290,16.0,22.0,87,0.00,,,0.63,Wunderground v.1.15,2013-04-24 18:01:00,
2013-04-24 13:06:00,39.4,35.9,30.03,WNW,291,15.0,22.0,87,0.00,,,0.63,Wunderground v.1.15,2013-04-24 18:06:00,
2013-04-24 13:12:00,39.5,35.7,30.03,West,281,14.0,22.0,86,0.00,,,0.63,Wunderground v.1.15,2013-04-24 18:12:00,
2013-04-24 13:17:00,39.6,35.5,30.03,WNW,294,17.0,23.0,85,0.00,,,0.63,Wunderground v.1.15,2013-04-24 18:17:00,
2013-04-24 13:22:00,40.0,35.9,30.03,NW,308,16.0,22.0,85,0.00,,,0.63,Wunderground v.1.15,2013-04-24 18:22:00,
2013-04-24 13:27:00,40.0,35.6,30.03,NW,304,16.0,22.0,84,0.00,,,0.63,Wunderground v.1.15,2013-04-24 18:27:00,
2013-04-24 13:32:00,40.5,36.3,30.03,WNW,293,16.0,22.0,85,0.00,,,0.63,Wunderground v.1.15,2013-04-24 18:32:00,
2013-04-24 13:38:00,40.7,36.5,30.03,WNW,288,16.0,22.0,85,0.00,,,0.63,Wunderground v.1.15,2013-04-24 18:38:00,
2013-04-24 13:43:00,40.9,36.4,30.04,West,281,17.0,22.0,84,0.00,,,0.63,Wunderground v.1.15,2013-04-24 18:43:00,
2013-04-24 13:48:00,40.5,36.0,30.04,WNW,298,18.0,22.0,84,0.00,,,0.63,Wunderground v.1.15,2013-04-24 18:48:00,
2013-04-24 13:53:00,40.6,36.4,30.04,WNW,295,17.0,22.0,85,0.00,,,0.63,Wunderground v.1.15,2013-04-24 18:53:00,
2013-04-24 13:58:00,41.3,37.4,30.05,WNW,292,15.0,22.0,86,0.00,,,0.63,Wunderground v.1.15,2013-04-24 18:58:00,
2013-04-24 14:04:00,41.7,37.2,30.05,West,278,13.0,22.0,84,0.00,,,0.63,Wunderground v.1.15,2013-04-24 19:04:00,
2013-04-24 14:09:00,42.2,37.4,30.05,WNW,290,14.0,22.0,83,0.00,,,0.63,Wunderground v.1.15,2013-04-24 19:09:00,
2013-04-24 14:14:00,42.7,37.3,30.05,WNW,296,15.0,22.0,81,0.00,,,0.63,Wunderground v.1.15,2013-04-24 19:14:00,
2013-04-24 14:19:00,42.0,36.9,30.05,WNW,285,16.0,22.0,82,0.00,,,0.63,Wunderground v.1.15,2013-04-24 19:19:00,
2013-04-24 14:24:00,42.2,37.7,30.06,WNW,286,15.0,22.0,84,0.00,,,0.63,Wunderground v.1.15,2013-04-24 19:24:00,
2013-04-24 14:30:00,42.0,37.2,30.06,WNW,283,14.0,14.0,83,0.00,,,0.63,Wunderground v.1.15,2013-04-24 19:30:00,
2013-04-24 14:35:00,42.2,37.7,30.06,West,273,14.0,22.0,84,0.00,,,0.63,Wunderground v.1.15,2013-04-24 19:35:00,
2013-04-24 14:40:00,42.1,37.3,30.07,WNW,285,15.0,15.0,83,0.00,,,0.63,Wunderground v.1.15,2013-04-24 19:40:00,
2013-04-24 14:45:00,42.0,37.5,30.07,WNW,290,15.0,22.0,84,0.00,,,0.63,Wunderground v.1.15,2013-04-24 19:45:00,
2013-04-24 14:50:00,41.5,37.0,30.07,WNW,287,16.0,16.0,84,0.00,,,0.63,Wunderground v.1.15,2013-04-24 19:50:00,
2013-04-24 14:56:00,41.7,37.5,30.07,West,269,15.0,22.0,85,0.00,,,0.63,Wunderground v.1.15,2013-04-24 19:56:00,
2013-04-24 15:01:00,42.2,38.3,30.07,WNW,298,13.0,22.0,86,0.00,,,0.63,Wunderground v.1.15,2013-04-24 20:01:00,
2013-04-24 15:06:00,42.2,38.0,30.07,WNW,291,12.0,22.0,85,0.00,,,0.63,Wunderground v.1.15,2013-04-24 20:06:00,
2013-04-24 15:11:00,41.9,37.7,30.07,WNW,298,12.0,14.0,85,0.00,,,0.63,Wunderground v.1.15,2013-04-24 20:11:00,
2013-04-24 15:16:00,41.2,37.3,30.07,West,278,13.0,22.0,86,0.00,,,0.63,Wunderground v.1.15,2013-04-24 20:16:00,
2013-04-24 15:21:00,41.5,38.2,30.07,West,260,14.0,22.0,88,0.00,,,0.64,Wunderground v.1.15,2013-04-24 20:21:00,
2013-04-24 15:26:00,41.7,38.4,30.07,WNW,282,13.0,22.0,88,0.00,,,0.64,Wunderground v.1.15,2013-04-24 20:26:00,
2013-04-24 15:31:00,41.8,38.8,30.08,West,273,13.0,22.0,89,0.00,,,0.64,Wunderground v.1.15,2013-04-24 20:31:00,
2013-04-24 15:36:00,42.2,38.9,30.07,West,266,13.0,22.0,88,0.00,,,0.64,Wunderground v.1.15,2013-04-24 20:36:00,
2013-04-24 15:41:00,42.8,39.2,30.07,West,278,14.0,22.0,87,0.00,,,0.64,Wunderground v.1.15,2013-04-24 20:41:00,
2013-04-24 15:46:00,42.9,39.0,30.07,WNW,283,14.0,22.0,86,0.00,,,0.64,Wunderground v.1.15,2013-04-24 20:46:00,
2013-04-24 15:51:00,42.9,39.0,30.08,West,270,14.0,22.0,86,0.00,,,0.64,Wunderground v.1.15,2013-04-24 20:51:00,
2013-04-24 15:57:00,42.9,39.0,30.08,West,269,14.0,22.0,86,0.00,,,0.64,Wunderground v.1.15,2013-04-24 20:57:00,
2013-04-24 16:02:00,43.4,39.2,30.08,West,279,13.0,22.0,85,0.00,,,0.64,Wunderground v.1.15,2013-04-24 21:02:00,
2013-04-24 16:07:00,43.6,39.1,30.08,West,281,13.0,23.0,84,0.00,,,0.64,Wunderground v.1.15,2013-04-24 21:07:00,
2013-04-24 16:12:00,44.0,39.5,30.08,WNW,285,14.0,22.0,84,0.00,,,0.64,Wunderground v.1.15,2013-04-24 21:12:00,
2013-04-24 16:17:00,44.0,38.9,30.08,West,279,15.0,22.0,82,0.00,,,0.64,Wunderground v.1.15,2013-04-24 21:17:00,
2013-04-24 16:23:00,43.7,38.6,30.08,WNW,288,15.0,22.0,82,0.00,,,0.64,Wunderground v.1.15,2013-04-24 21:23:00,
2013-04-24 16:28:00,43.3,38.2,30.09,WNW,294,14.0,22.0,82,0.00,,,0.64,Wunderground v.1.15,2013-04-24 21:28:00,
2013-04-24 16:33:00,42.4,37.9,30.09,West,273,14.0,22.0,84,0.00,,,0.64,Wunderground v.1.15,2013-04-24 21:33:00,
2013-04-24 16:38:00,42.1,37.9,30.10,WNW,282,14.0,22.0,85,0.00,,,0.64,Wunderground v.1.15,2013-04-24 21:38:00,
2013-04-24 16:43:00,42.5,38.6,30.10,West,273,14.0,22.0,86,0.00,,,0.64,Wunderground v.1.15,2013-04-24 21:43:00,
2013-04-24 16:49:00,42.4,38.2,30.10,WNW,297,14.0,22.0,85,0.00,,,0.64,Wunderground v.1.15,2013-04-24 21:49:00,
2013-04-24 16:54:00,42.3,37.8,30.10,WNW,282,15.0,22.0,84,0.00,,,0.64,Wunderground v.1.15,2013-04-24 21:54:00,
2013-04-24 16:59:00,43.1,37.0,30.10,West,275,14.0,22.0,79,0.00,,,0.64,Wunderground v.1.15,2013-04-24 21:59:00,
2013-04-24 17:04:00,43.6,37.2,30.10,West,264,13.0,22.0,78,0.00,,,0.64,Wunderground v.1.15,2013-04-24 22:04:00,
2013-04-24 17:09:00,44.3,37.9,30.11,WNW,285,13.0,22.0,78,0.00,,,0.64,Wunderground v.1.15,2013-04-24 22:09:00,
2013-04-24 17:15:00,44.3,38.2,30.11,West,275,15.0,22.0,79,0.00,,,0.64,Wunderground v.1.15,2013-04-24 22:15:00,
2013-04-24 17:20:00,44.5,39.0,30.11,WNW,292,13.0,13.0,81,0.00,,,0.64,Wunderground v.1.15,2013-04-24 22:20:00,
2013-04-24 17:25:00,44.3,38.2,30.11,WNW,283,12.0,22.0,79,0.00,,,0.64,Wunderground v.1.15,2013-04-24 22:25:00,
2013-04-24 17:30:00,44.5,38.4,30.12,WNW,284,13.0,22.0,79,0.00,,,0.64,Wunderground v.1.15,2013-04-24 22:30:00,
2013-04-24 17:35:00,44.5,38.1,30.12,WNW,293,13.0,22.0,78,0.00,,,0.64,Wunderground v.1.15,2013-04-24 22:35:00,
2013-04-24 17:40:00,44.5,37.7,30.12,West,281,13.0,22.0,77,0.00,,,0.64,Wunderground v.1.15,2013-04-24 22:40:00,
2013-04-24 17:46:00,45.2,38.7,30.12,West,273,13.0,22.0,78,0.00,,,0.64,Wunderground v.1.15,2013-04-24 22:46:00,
2013-04-24 17:51:00,45.0,37.6,30.13,WNW,285,13.0,14.0,75,0.00,,,0.64,Wunderground v.1.15,2013-04-24 22:51:00,
2013-04-24 17:56:00,45.1,38.3,30.13,West,276,13.0,22.0,77,0.00,,,0.64,Wunderground v.1.15,2013-04-24 22:56:00,
2013-04-24 18:01:00,45.1,37.6,30.13,West,278,12.0,22.0,75,0.00,,,0.64,Wunderground v.1.15,2013-04-24 23:01:00,
2013-04-24 18:07:00,45.3,37.8,30.13,WNW,286,11.0,22.0,75,0.00,,,0.64,Wunderground v.1.15,2013-04-24 23:07:00,
2013-04-24 18:12:00,45.4,37.2,30.13,West,276,10.0,22.0,73,0.00,,,0.64,Wunderground v.1.15,2013-04-24 23:12:00,
2013-04-24 18:17:00,45.2,36.0,30.13,West,281,11.0,22.0,70,0.00,,,0.64,Wunderground v.1.15,2013-04-24 23:17:00,
2013-04-24 18:22:00,45.1,37.0,30.13,WNW,284,10.0,22.0,73,0.00,,,0.64,Wunderground v.1.15,2013-04-24 23:22:00,
2013-04-24 18:27:00,45.1,35.9,30.14,West,266,10.0,22.0,70,0.00,,,0.64,Wunderground v.1.15,2013-04-24 23:27:00,
2013-04-24 18:32:00,45.1,35.5,30.14,West,278,10.0,22.0,69,0.00,,,0.64,Wunderground v.1.15,2013-04-24 23:32:00,
2013-04-24 18:37:00,45.1,35.9,30.14,West,277,11.0,22.0,70,0.00,,,0.64,Wunderground v.1.15,2013-04-24 23:37:00,
2013-04-24 18:42:00,44.9,35.3,30.14,West,272,10.0,22.0,69,0.00,,,0.64,Wunderground v.1.15,2013-04-24 23:42:00,
2013-04-24 18:47:00,44.9,35.7,30.14,WNW,286,9.0,22.0,70,0.00,,,0.64,Wunderground v.1.15,2013-04-24 23:47:00,
2013-04-24 18:52:00,44.9,35.7,30.14,West,277,10.0,22.0,70,0.00,,,0.64,Wunderground v.1.15,2013-04-24 23:52:00,
2013-04-24 18:57:00,44.7,35.5,30.14,West,269,10.0,22.0,70,0.00,,,0.64,Wunderground v.1.15,2013-04-24 23:57:00,
2013-04-24 19:03:00,44.6,36.1,30.15,West,279,10.0,22.0,72,0.00,,,0.64,Wunderground v.1.15,2013-04-25 00:03:00,
2013-04-24 19:08:00,44.5,36.7,30.15,West,275,9.0,22.0,74,0.00,,,0.64,Wunderground v.1.15,2013-04-25 00:08:00,
2013-04-24 19:13:00,44.5,36.4,30.15,West,271,8.0,22.0,73,0.00,,,0.64,Wunderground v.1.15,2013-04-25 00:13:00,
2013-04-24 19:18:00,44.5,36.4,30.15,West,265,9.0,22.0,73,0.00,,,0.64,Wunderground v.1.15,2013-04-25 00:18:00,
2013-04-24 19:23:00,44.4,35.9,30.15,WNW,288,9.0,22.0,72,0.00,,,0.64,Wunderground v.1.15,2013-04-25 00:23:00,
2013-04-24 19:29:00,44.2,35.0,30.16,WSW,256,9.0,22.0,70,0.00,,,0.64,Wunderground v.1.15,2013-04-25 00:29:00,
2013-04-24 19:34:00,44.3,34.4,30.16,West,265,10.0,22.0,68,0.00,,,0.64,Wunderground v.1.15,2013-04-25 00:34:00,
2013-04-24 19:39:00,44.2,34.3,30.16,West,265,10.0,22.0,68,0.00,,,0.64,Wunderground v.1.15,2013-04-25 00:39:00,
2013-04-24 19:44:00,44.2,34.3,30.16,West,272,9.0,22.0,68,0.00,,,0.64,Wunderground v.1.15,2013-04-25 00:44:00,
2013-04-24 19:50:00,44.1,34.6,30.17,West,263,8.0,8.0,69,0.00,,,0.64,Wunderground v.1.15,2013-04-25 00:50:00,
2013-04-24 19:56:00,44.0,34.5,30.18,West,259,7.0,22.0,69,0.00,,,0.64,Wunderground v.1.15,2013-04-25 00:56:00,
2013-04-24 20:01:00,43.8,35.0,30.18,West,259,7.0,22.0,71,0.00,,,0.64,Wunderground v.1.15,2013-04-25 01:01:00,
2013-04-24 20:06:00,43.5,35.4,30.18,West,267,7.0,22.0,73,0.00,,,0.64,Wunderground v.1.15,2013-04-25 01:06:00,
2013-04-24 20:11:00,43.4,36.0,30.18,West,263,6.0,22.0,75,0.00,,,0.64,Wunderground v.1.15,2013-04-25 01:11:00,
2013-04-24 20:16:00,43.3,35.9,30.18,West,259,6.0,22.0,75,0.00,,,0.64,Wunderground v.1.15,2013-04-25 01:16:00,
2013-04-24 20:22:00,43.2,35.8,30.19,WSW,250,6.0,22.0,75,0.00,,,0.64,Wunderground v.1.15,2013-04-25 01:22:00,
2013-04-24 20:27:00,43.1,36.0,30.19,West,264,6.0,22.0,76,0.00,,,0.64,Wunderground v.1.15,2013-04-25 01:27:00,
2013-04-24 20:32:00,43.1,36.4,30.20,West,263,6.0,22.0,77,0.00,,,0.64,Wunderground v.1.15,2013-04-25 01:32:00,
2013-04-24 20:37:00,43.0,36.3,30.20,WSW,258,6.0,22.0,77,0.00,,,0.64,Wunderground v.1.15,2013-04-25 01:37:00,
2013-04-24 20:42:00,42.9,36.2,30.20,West,262,6.0,22.0,77,0.00,,,0.64,Wunderground v.1.15,2013-04-25 01:42:00,
2013-04-24 20:48:00,42.9,36.2,30.21,WSW,258,6.0,22.0,77,0.00,,,0.64,Wunderground v.1.15,2013-04-25 01:48:00,
2013-04-24 20:53:00,42.8,36.1,30.21,West,261,6.0,22.0,77,0.00,,,0.64,Wunderground v.1.15,2013-04-25 01:53:00,
2013-04-24 20:58:00,42.8,36.1,30.21,West,262,6.0,22.0,77,0.00,,,0.64,Wunderground v.1.15,2013-04-25 01:58:00,
2013-04-24 21:03:00,42.6,36.5,30.21,WSW,255,5.0,22.0,79,0.00,,,0.64,Wunderground v.1.15,2013-04-25 02:03:00,
2013-04-24 21:08:00,42.7,36.0,30.22,West,263,5.0,22.0,77,0.00,,,0.64,Wunderground v.1.15,2013-04-25 02:08:00,
2013-04-24 21:13:00,42.9,35.9,30.22,West,262,6.0,22.0,76,0.00,,,0.64,Wunderground v.1.15,2013-04-25 02:13:00,
2013-04-24 21:18:00,42.9,35.9,30.22,West,262,6.0,22.0,76,0.00,,,0.64,Wunderground v.1.15,2013-04-25 02:18:00,
2013-04-24 21:23:00,42.9,35.9,30.22,West,261,6.0,22.0,76,0.00,,,0.64,Wunderground v.1.15,2013-04-25 02:23:00,
2013-04-24 21:28:00,42.6,36.2,30.22,West,261,5.0,22.0,78,0.00,,,0.64,Wunderground v.1.15,2013-04-25 02:28:00,
2013-04-24 21:33:00,42.5,35.8,30.22,West,261,5.0,22.0,77,0.00,,,0.64,Wunderground v.1.15,2013-04-25 02:33:00,
2013-04-24 21:38:00,42.5,35.8,30.22,WSW,258,5.0,22.0,77,0.00,,,0.64,Wunderground v.1.15,2013-04-25 02:38:00,
2013-04-24 21:44:00,42.3,35.9,30.22,West,262,5.0,22.0,78,0.00,,,0.64,Wunderground v.1.15,2013-04-25 02:44:00,
2013-04-24 21:49:00,42.2,36.2,30.22,West,261,4.0,22.0,79,0.00,,,0.64,Wunderground v.1.15,2013-04-25 02:49:00,
2013-04-24 21:54:00,41.9,35.9,30.22,West,261,4.0,22.0,79,0.00,,,0.64,Wunderground v.1.15,2013-04-25 02:54:00,
2013-04-24 21:59:00,41.7,35.7,30.22,West,261,2.0,22.0,79,0.00,,,0.64,Wunderground v.1.15,2013-04-25 02:59:00,
2013-04-24 22:04:00,41.8,35.8,30.22,West,260,2.0,22.0,79,0.00,,,0.64,Wunderground v.1.15,2013-04-25 03:04:00,
2013-04-24 22:10:00,42.2,35.2,30.22,West,261,4.0,22.0,76,0.00,,,0.64,Wunderground v.1.15,2013-04-25 03:10:00,
2013-04-24 22:15:00,42.0,35.0,30.22,West,261,3.0,22.0,76,0.00,,,0.64,Wunderground v.1.15,2013-04-25 03:15:00,
2013-04-24 22:20:00,41.7,35.0,30.22,West,261,2.0,22.0,77,0.00,,,0.64,Wunderground v.1.15,2013-04-25 03:20:00,
2013-04-24 22:25:00,41.7,35.3,30.22,West,261,2.0,22.0,78,0.00,,,0.64,Wunderground v.1.15,2013-04-25 03:25:00,
2013-04-24 22:30:00,41.6,35.6,30.22,West,261,2.0,2.0,79,0.00,,,0.64,Wunderground v.1.15,2013-04-25 03:30:00,
2013-04-24 22:36:00,41.5,35.5,30.22,West,261,0.0,22.0,79,0.00,,,0.64,Wunderground v.1.15,2013-04-25 03:36:00,
2013-04-24 22:41:00,41.3,35.3,30.22,West,261,0.0,22.0,79,0.00,,,0.64,Wunderground v.1.15,2013-04-25 03:41:00,
2013-04-24 22:46:00,41.1,35.1,30.21,West,261,0.0,22.0,79,0.00,,,0.64,Wunderground v.1.15,2013-04-25 03:46:00,
2013-04-24 22:51:00,40.8,35.1,30.21,West,261,0.0,22.0,80,0.00,,,0.64,Wunderground v.1.15,2013-04-25 03:51:00,
2013-04-24 22:56:00,40.9,35.2,30.21,West,261,0.0,22.0,80,0.00,,,0.64,Wunderground v.1.15,2013-04-25 03:56:00,
2013-04-24 23:01:00,40.7,35.0,30.21,West,261,0.0,22.0,80,0.00,,,0.00,Wunderground v.1.15,2013-04-25 04:01:00,
2013-04-24 23:02:00,40.7,34.7,30.21,West,261,0.0,22.0,79,0.00,,,0.00,Wunderground v.1.15,2013-04-25 04:02:00,
2013-04-24 23:04:00,40.6,34.6,30.22,West,261,0.0,22.0,79,0.00,,,0.00,Wunderground v.1.15,2013-04-25 04:04:00,
2013-04-24 23:06:00,40.4,34.4,30.22,West,261,0.0,22.0,79,0.00,,,0.00,Wunderground v.1.15,2013-04-25 04:06:00,
2013-04-24 23:07:00,40.4,34.7,30.22,West,261,0.0,22.0,80,0.00,,,0.00,Wunderground v.1.15,2013-04-25 04:07:00,
2013-04-24 23:49:00,39.2,34.5,30.22,West,269,0.0,22.0,83,0.00,,,0.00,Wunderground v.1.15,2013-04-25 04:49:00,
2013-04-24 23:54:00,39.3,34.6,30.22,West,271,0.0,22.0,83,0.00,,,0.00,Wunderground v.1.15,2013-04-25 04:54:00,
2013-04-24 23:59:00,39.5,34.8,30.22,West,277,1.0,22.0,83,0.00,,,0.00,Wunderground v.1.15,2013-04-25 04:59:00,